createdAt,value
2022-11-30T00:00:18.188Z,59.90
2022-11-30T00:05:20.958Z,57.83
2022-11-30T00:10:23.607Z,49.88
2022-11-30T00:15:25.302Z,63.03
2022-11-30T00:20:29.704Z,62.22
2022-11-30T00:25:31.381Z,59.95
2022-11-30T00:30:33.076Z,54.53
2022-11-30T00:35:34.767Z,56.63
2022-11-30T00:40:36.428Z,60.78
2022-11-30T00:45:38.089Z,58.67
2022-11-30T00:50:39.789Z,52.55
2022-11-30T00:55:43.569Z,57.42
2022-11-30T01:00:45.515Z,54.83
2022-11-30T01:05:47.333Z,56.42
2022-11-30T01:10:53.392Z,51.97
2022-11-30T01:15:55.156Z,54.28
2022-11-30T01:20:56.961Z,57.45
2022-11-30T01:25:58.660Z,51.05
2022-11-30T01:31:02.691Z,61.22
2022-11-30T01:36:13.785Z,54.05
2022-11-30T01:41:20.050Z,51.40
2022-11-30T01:46:27.520Z,56.03
2022-11-30T01:51:34.190Z,48.78
2022-11-30T01:56:37.852Z,56.35
2022-11-30T02:01:39.552Z,52.25
2022-11-30T02:06:42.185Z,59.97
2022-11-30T02:11:43.937Z,52.92
2022-11-30T02:17:05.536Z,50.20
2022-11-30T02:22:33.620Z,58.22
2022-11-30T02:27:53.645Z,50.40
2022-11-30T02:33:07.283Z,48.80
2022-11-30T02:38:10.428Z,51.85
2022-11-30T02:43:12.139Z,53.22
2022-11-30T02:48:17.281Z,56.92
2022-11-30T02:53:19.972Z,55.92
2022-11-30T02:58:22.365Z,47.90
2022-11-30T03:03:24.074Z,45.13
2022-11-30T03:08:25.823Z,52.05
2022-11-30T03:13:27.496Z,48.25
2022-11-30T03:18:29.152Z,45.72
2022-11-30T03:23:30.860Z,51.72
2022-11-30T03:28:32.651Z,49.92
2022-11-30T03:33:34.332Z,55.90
2022-11-30T03:38:36.639Z,44.55
2022-11-30T03:43:38.355Z,53.75
2022-11-30T03:48:43.235Z,52.80
2022-11-30T03:53:45.085Z,41.03
2022-11-30T03:58:46.796Z,48.53
2022-11-30T04:03:49.282Z,45.85
2022-11-30T04:08:50.967Z,42.70
2022-11-30T04:13:52.636Z,47.28
2022-11-30T04:18:54.342Z,48.42
2022-11-30T04:23:56.006Z,43.63
2022-11-30T04:28:57.676Z,44.97
2022-11-30T04:33:59.469Z,46.33
2022-11-30T04:39:01.148Z,46.88
2022-11-30T04:44:02.839Z,47.60
2022-11-30T04:49:04.664Z,47.22
2022-11-30T04:54:06.450Z,50.65
2022-11-30T04:59:08.124Z,50.35
2022-11-30T05:04:09.846Z,55.05
2022-11-30T05:09:11.529Z,46.72
2022-11-30T05:14:13.226Z,48.03
2022-11-30T05:19:15.549Z,49.97
2022-11-30T05:24:17.261Z,43.85
2022-11-30T05:29:18.939Z,52.55
2022-11-30T05:34:20.662Z,47.47
2022-11-30T05:39:22.329Z,49.85
2022-11-30T05:44:24.007Z,47.85
2022-11-30T05:49:25.684Z,55.50
2022-11-30T05:54:27.443Z,45.07
2022-11-30T05:59:29.111Z,54.55
2022-11-30T06:04:30.874Z,58.57
2022-11-30T06:09:32.550Z,59.92
2022-11-30T06:14:34.225Z,55.92
2022-11-30T06:19:35.890Z,57.07
2022-11-30T06:24:37.599Z,55.40
2022-11-30T06:29:39.279Z,48.58
2022-11-30T06:34:40.941Z,50.20
2022-11-30T06:40:05.291Z,53.53
2022-11-30T06:45:05.794Z,57.13
2022-11-30T06:50:08.369Z,49.50
2022-11-30T06:55:11.039Z,52.80
2022-11-30T07:00:13.470Z,59.07
2022-11-30T07:05:15.189Z,51.00
2022-11-30T07:10:20.118Z,57.23
2022-11-30T07:15:22.130Z,58.50
2022-11-30T07:20:23.793Z,56.17
2022-11-30T07:25:44.113Z,56.22
2022-11-30T07:30:45.780Z,53.88
2022-11-30T07:35:47.460Z,57.83
2022-11-30T07:40:49.154Z,54.92
2022-11-30T07:45:54.032Z,50.10
2022-11-30T07:51:02.321Z,70.93
2022-11-30T07:56:05.794Z,53.35
2022-11-30T08:01:12.916Z,51.13
2022-11-30T08:06:19.899Z,44.27
2022-11-30T08:11:24.354Z,45.65
2022-11-30T08:16:28.845Z,38.75
2022-11-30T08:21:32.442Z,53.35
2022-11-30T08:26:34.475Z,46.70
2022-11-30T08:31:37.772Z,48.45
2022-11-30T08:36:40.716Z,47.92
2022-11-30T08:41:42.422Z,53.97
2022-11-30T08:46:52.383Z,62.28
2022-11-30T08:57:20.361Z,50.95
2022-11-30T09:02:22.074Z,47.30
2022-11-30T09:07:23.777Z,37.47
2022-11-30T09:12:25.460Z,39.72
2022-11-30T09:17:27.150Z,40.47
2022-11-30T09:22:28.919Z,34.47
2022-11-30T09:27:34.211Z,33.58
2022-11-30T09:32:35.883Z,34.75
2022-11-30T09:37:38.888Z,33.70
2022-11-30T09:43:20.789Z,30.30
2022-11-30T09:48:27.261Z,29.75
2022-11-30T09:53:40.493Z,28.58
2022-11-30T09:58:49.447Z,28.98
2022-11-30T10:03:51.300Z,28.50
2022-11-30T10:09:07.942Z,27.90
2022-11-30T10:14:35.500Z,24.75
2022-11-30T10:20:01.730Z,30.38
2022-11-30T10:25:08.626Z,25.85
2022-11-30T10:30:25.370Z,27.45
2022-11-30T10:35:43.374Z,30.50
2022-11-30T10:40:58.893Z,27.63
2022-11-30T10:46:00.694Z,24.50
2022-11-30T10:51:03.679Z,25.42
2022-11-30T10:56:12.241Z,24.13
2022-11-30T11:01:35.957Z,23.95
2022-11-30T11:06:44.133Z,24.88
2022-11-30T11:11:45.980Z,20.45
2022-11-30T11:16:51.964Z,22.10
2022-11-30T11:21:53.951Z,19.42
2022-11-30T11:26:57.143Z,20.15
2022-11-30T11:32:27.231Z,22.40
2022-11-30T11:37:31.127Z,23.67
2022-11-30T11:42:42.482Z,21.13
2022-11-30T11:47:46.300Z,21.50
2022-11-30T11:52:49.890Z,24.80
2022-11-30T11:58:02.387Z,24.27
2022-11-30T12:03:19.211Z,22.42
2022-11-30T12:08:55.142Z,23.85
2022-11-30T12:13:56.869Z,21.70
2022-11-30T12:19:16.144Z,24.55
2022-11-30T12:24:26.691Z,23.73
2022-11-30T12:30:09.982Z,22.88
2022-11-30T12:35:45.598Z,21.85
2022-11-30T12:41:02.423Z,24.75
2022-11-30T12:46:14.963Z,21.25
2022-11-30T12:51:30.159Z,25.38
2022-11-30T12:57:01.467Z,24.45
2022-11-30T13:02:22.222Z,25.45
2022-11-30T13:07:38.359Z,24.98
2022-11-30T13:12:47.115Z,29.83
2022-11-30T13:17:50.135Z,25.65
2022-11-30T13:23:34.056Z,29.50
2022-11-30T13:28:41.882Z,29.90
2022-11-30T13:33:49.038Z,28.30
2022-11-30T13:39:14.000Z,29.33
2022-11-30T13:44:37.265Z,26.20
2022-11-30T13:49:38.995Z,26.95
2022-11-30T13:54:50.431Z,30.73
2022-11-30T13:59:54.572Z,26.35
2022-11-30T14:05:21.503Z,25.25
2022-11-30T14:10:36.090Z,27.67
2022-11-30T14:15:42.075Z,26.30
2022-11-30T14:21:16.412Z,24.48
2022-11-30T14:26:24.552Z,23.02
2022-11-30T14:31:30.517Z,24.10
2022-11-30T14:36:41.610Z,23.60
2022-11-30T14:41:43.291Z,24.92
2022-11-30T14:46:45.104Z,25.48
2022-11-30T14:52:05.595Z,31.50
2022-11-30T14:57:22.684Z,23.23
2022-11-30T15:02:38.656Z,23.10
2022-11-30T15:07:42.993Z,23.20
2022-11-30T15:12:45.943Z,22.20
2022-11-30T15:17:51.074Z,24.92
2022-11-30T15:22:54.902Z,25.98
2022-11-30T15:27:58.564Z,24.52
2022-11-30T15:33:00.311Z,21.75
2022-11-30T15:38:08.414Z,26.92
2022-11-30T15:43:22.006Z,28.77
2022-11-30T15:48:49.214Z,27.63
2022-11-30T15:53:51.911Z,30.10
2022-11-30T15:59:24.187Z,26.52
2022-11-30T16:04:25.898Z,26.42
2022-11-30T16:09:32.619Z,25.88
2022-11-30T16:14:34.313Z,30.55
2022-11-30T16:19:36.009Z,25.58
2022-11-30T16:24:37.682Z,21.77
2022-11-30T16:29:39.344Z,23.70
2022-11-30T16:34:41.576Z,29.25
2022-11-30T16:39:43.406Z,33.47
2022-11-30T16:44:45.084Z,30.70
2022-11-30T16:49:47.154Z,29.40
2022-11-30T16:54:49.024Z,36.13
2022-11-30T16:59:50.679Z,29.55
2022-11-30T17:04:52.388Z,25.70
2022-11-30T17:09:54.062Z,28.80
2022-11-30T17:14:56.003Z,27.98
2022-11-30T17:19:57.822Z,27.60
2022-11-30T17:24:59.624Z,28.48
2022-11-30T17:30:01.400Z,33.05
2022-11-30T17:35:03.515Z,25.85
2022-11-30T17:40:07.064Z,27.80
2022-11-30T17:45:09.348Z,29.35
2022-11-30T17:50:11.437Z,27.20
2022-11-30T17:55:13.097Z,28.85
2022-11-30T18:00:15.493Z,29.85
2022-11-30T18:05:17.226Z,27.63
2022-11-30T18:10:19.102Z,29.70
2022-11-30T18:15:20.755Z,32.67
2022-11-30T18:20:22.840Z,30.98
2022-11-30T18:25:24.718Z,36.95
2022-11-30T18:30:26.663Z,28.98
2022-11-30T18:35:28.766Z,32.60
2022-11-30T18:40:30.452Z,30.63
2022-11-30T18:45:35.816Z,28.60
2022-11-30T18:50:37.580Z,33.47
2022-11-30T18:55:39.239Z,28.10
2022-11-30T19:00:41.158Z,32.58
2022-11-30T19:05:42.819Z,33.90
2022-11-30T19:10:44.507Z,44.60
2022-11-30T19:15:46.187Z,40.63
2022-11-30T19:20:47.857Z,35.67
2022-11-30T19:25:50.197Z,40.03
2022-11-30T19:30:51.911Z,37.55
2022-11-30T19:35:53.631Z,33.85
2022-11-30T19:40:55.425Z,38.03
2022-11-30T19:46:02.999Z,43.53
2022-11-30T19:51:13.405Z,43.25
2022-11-30T19:56:18.107Z,46.25
2022-11-30T20:01:25.399Z,54.40
2022-11-30T20:06:33.923Z,55.67
2022-11-30T20:11:35.797Z,66.53
2022-11-30T20:16:37.501Z,62.65
2022-11-30T20:21:39.235Z,64.65
2022-11-30T20:26:43.358Z,66.28
2022-11-30T20:31:47.164Z,71.03
2022-11-30T20:36:48.857Z,65.85
2022-11-30T20:41:50.519Z,66.57
2022-11-30T20:46:52.189Z,68.85
2022-11-30T20:51:54.037Z,67.85
2022-11-30T20:56:57.329Z,64.70
2022-11-30T21:01:59.037Z,60.25
2022-11-30T21:07:00.888Z,65.38
2022-11-30T21:12:02.593Z,65.72
2022-11-30T21:17:04.776Z,64.22
2022-11-30T21:22:06.505Z,69.60
2022-11-30T21:27:08.302Z,62.83
2022-11-30T21:32:10.085Z,65.47
2022-11-30T21:37:11.743Z,55.25
2022-11-30T21:42:13.395Z,57.42
2022-11-30T21:47:15.266Z,67.03
2022-11-30T21:52:16.995Z,59.65
2022-11-30T21:57:18.886Z,60.83
2022-11-30T22:02:20.604Z,64.20
2022-11-30T22:07:31.655Z,58.35
2022-11-30T22:12:33.402Z,61.10
2022-11-30T22:17:35.073Z,60.97
2022-11-30T22:22:36.753Z,63.88
2022-11-30T22:27:38.559Z,68.32
2022-11-30T22:32:43.477Z,60.08
2022-11-30T22:37:45.391Z,68.18
2022-11-30T22:42:47.064Z,73.63
2022-11-30T22:47:48.755Z,67.60
2022-11-30T22:53:05.164Z,72.60
2022-11-30T22:58:06.848Z,74.15
2022-11-30T23:03:08.609Z,65.88
2022-11-30T23:08:10.358Z,74.15
2022-11-30T23:13:12.138Z,73.82
2022-11-30T23:18:13.813Z,72.60
2022-11-30T23:23:15.552Z,83.35
2022-11-30T23:28:17.375Z,66.60
2022-11-30T23:33:19.078Z,69.40
2022-11-30T23:38:20.754Z,63.03
2022-11-30T23:43:22.461Z,59.13
2022-11-30T23:48:24.464Z,53.22
2022-11-30T23:53:26.693Z,61.40
2022-11-30T23:58:29.840Z,59.95
